createdAt,value
2019-02-16T00:01:39.109Z,4.45
2019-02-16T00:04:13.827Z,5.20
2019-02-16T00:06:48.444Z,4.40
2019-02-16T00:09:23.325Z,4.17
2019-02-16T00:11:58.683Z,3.98
2019-02-16T00:14:33.717Z,4.15
2019-02-16T00:17:07.844Z,4.77
2019-02-16T00:19:42.879Z,4.75
2019-02-16T00:22:17.802Z,4.12
2019-02-16T00:24:52.517Z,3.90
2019-02-16T00:27:27.438Z,4.43
2019-02-16T00:30:02.352Z,4.57
2019-02-16T00:32:37.372Z,4.40
2019-02-16T00:35:12.378Z,4.10
2019-02-16T00:37:48.298Z,4.13
2019-02-16T00:40:22.957Z,4.90
2019-02-16T00:42:57.337Z,5.23
2019-02-16T00:45:32.225Z,5.10
2019-02-16T00:48:06.866Z,5.90
2019-02-16T00:50:42.416Z,6.07
2019-02-16T00:53:17.380Z,5.85
2019-02-16T00:55:51.999Z,5.78
2019-02-16T00:58:27.311Z,7.22
2019-02-16T01:01:01.807Z,7.12
2019-02-16T01:03:36.940Z,6.28
2019-02-16T01:06:11.782Z,6.30
2019-02-16T01:08:46.327Z,6.07
2019-02-16T01:11:20.991Z,6.33
2019-02-16T01:13:55.571Z,5.92
2019-02-16T01:16:30.808Z,5.63
2019-02-16T01:19:05.667Z,7.33
2019-02-16T01:21:40.359Z,6.12
2019-02-16T01:24:15.180Z,5.75
2019-02-16T01:26:49.947Z,5.80
2019-02-16T01:29:24.822Z,5.35
2019-02-16T01:31:59.892Z,4.83
2019-02-16T01:34:34.856Z,5.70
2019-02-16T01:37:10.181Z,5.00
2019-02-16T01:39:44.792Z,5.12
2019-02-16T01:42:19.953Z,5.13
2019-02-16T01:44:54.546Z,5.20
2019-02-16T01:47:28.985Z,5.03
2019-02-16T01:50:03.934Z,4.75
2019-02-16T01:52:38.630Z,4.83
2019-02-16T01:55:14.161Z,4.80
2019-02-16T01:57:48.944Z,5.15
2019-02-16T02:00:23.888Z,5.00
2019-02-16T02:03:01.737Z,5.25
2019-02-16T02:05:36.640Z,4.65
2019-02-16T02:08:11.370Z,4.37
2019-02-16T02:10:46.659Z,4.22
2019-02-16T02:13:21.299Z,4.55
2019-02-16T02:15:57.088Z,4.70
2019-02-16T02:18:32.057Z,4.47
2019-02-16T02:21:06.807Z,4.58
2019-02-16T02:23:41.651Z,4.60
2019-02-16T02:26:16.597Z,4.95
2019-02-16T02:28:51.294Z,4.83
2019-02-16T02:31:26.508Z,4.97
2019-02-16T02:34:01.200Z,3.98
2019-02-16T02:36:35.618Z,4.58
2019-02-16T02:39:10.251Z,5.08
2019-02-16T02:41:44.966Z,4.30
2019-02-16T02:44:19.827Z,4.57
2019-02-16T02:46:54.814Z,4.37
2019-02-16T02:49:29.825Z,5.03
2019-02-16T02:52:04.501Z,4.42
2019-02-16T02:54:39.718Z,4.72
2019-02-16T02:57:14.282Z,4.85
2019-02-16T02:59:48.823Z,4.70
2019-02-16T03:02:23.302Z,4.70
2019-02-16T03:04:58.199Z,4.67
2019-02-16T03:07:32.966Z,4.58
2019-02-16T03:10:07.975Z,5.03
2019-02-16T03:12:42.747Z,5.17
2019-02-16T03:15:16.942Z,5.37
2019-02-16T03:17:52.335Z,5.10
2019-02-16T03:20:27.110Z,6.37
2019-02-16T03:23:27.467Z,6.60
2019-02-16T03:26:25.352Z,6.80
2019-02-16T03:29:04.285Z,6.77
2019-02-16T03:32:27.357Z,6.90
2019-02-16T03:35:46.684Z,6.93
2019-02-16T03:38:53.411Z,6.70
2019-02-16T03:41:28.551Z,5.63
2019-02-16T03:44:03.351Z,5.75
2019-02-16T03:46:41.734Z,5.23
2019-02-16T03:49:16.483Z,5.17
2019-02-16T03:51:51.273Z,5.60
2019-02-16T03:54:25.804Z,5.58
2019-02-16T03:57:00.406Z,4.95
2019-02-16T03:59:35.197Z,4.95
2019-02-16T04:02:09.473Z,4.85
2019-02-16T04:04:44.410Z,4.70
2019-02-16T04:07:19.334Z,5.27
2019-02-16T04:09:54.291Z,4.90
2019-02-16T04:12:28.385Z,4.53
2019-02-16T04:15:05.418Z,4.97
2019-02-16T04:17:40.142Z,4.65
2019-02-16T04:20:15.371Z,4.60
2019-02-16T04:22:50.269Z,4.75
2019-02-16T04:25:25.073Z,4.90
2019-02-16T04:27:59.449Z,4.62
2019-02-16T04:30:34.284Z,4.50
2019-02-16T04:33:09.009Z,5.03
2019-02-16T04:35:43.372Z,4.55
2019-02-16T04:38:18.131Z,4.92
2019-02-16T04:40:53.066Z,4.92
2019-02-16T04:43:27.911Z,4.83
2019-02-16T04:46:02.978Z,4.67
2019-02-16T04:48:37.746Z,4.58
2019-02-16T04:51:12.639Z,5.00
2019-02-16T04:53:47.731Z,5.35
2019-02-16T04:56:23.126Z,5.05
2019-02-16T04:58:58.161Z,5.05
2019-02-16T05:01:32.611Z,4.80
2019-02-16T05:04:07.304Z,5.33
2019-02-16T05:06:41.755Z,4.67
2019-02-16T05:09:16.443Z,5.05
2019-02-16T05:11:51.548Z,4.95
2019-02-16T05:14:26.067Z,5.33
2019-02-16T05:17:00.439Z,5.08
2019-02-16T05:19:35.869Z,4.70
2019-02-16T05:22:28.271Z,4.85
2019-02-16T05:25:03.414Z,5.20
2019-02-16T05:27:38.130Z,4.87
2019-02-16T05:30:12.947Z,4.90
2019-02-16T05:32:47.531Z,4.50
2019-02-16T05:35:22.542Z,4.65
2019-02-16T05:37:57.903Z,5.00
2019-02-16T05:40:32.433Z,4.70
2019-02-16T05:43:07.284Z,4.40
2019-02-16T05:45:42.358Z,5.00
2019-02-16T05:48:17.228Z,4.53
2019-02-16T05:50:51.888Z,4.40
2019-02-16T05:53:26.610Z,4.78
2019-02-16T05:56:01.640Z,4.60
2019-02-16T05:58:36.564Z,4.90
2019-02-16T06:01:11.718Z,4.83
2019-02-16T06:03:46.418Z,4.58
2019-02-16T06:06:21.428Z,4.62
2019-02-16T06:08:55.958Z,4.97
2019-02-16T06:11:32.884Z,5.23
2019-02-16T06:14:06.586Z,4.45
2019-02-16T06:16:41.675Z,4.42
2019-02-16T06:19:16.315Z,4.75
2019-02-16T06:21:51.244Z,4.72
2019-02-16T06:24:26.285Z,4.97
2019-02-16T06:27:21.599Z,4.72
2019-02-16T06:29:56.281Z,5.40
2019-02-16T06:32:31.023Z,5.10
2019-02-16T06:35:24.311Z,5.55
2019-02-16T06:37:58.883Z,5.47
2019-02-16T06:40:36.139Z,5.55
2019-02-16T06:43:14.358Z,5.25
2019-02-16T06:45:49.077Z,5.35
2019-02-16T06:48:24.122Z,5.67
2019-02-16T06:53:52.968Z,5.80
2019-02-16T06:56:48.679Z,5.78
2019-02-16T06:59:24.437Z,5.35
2019-02-16T07:01:58.917Z,6.03
2019-02-16T07:04:33.897Z,5.75
2019-02-16T07:07:08.249Z,5.90
2019-02-16T07:09:43.138Z,6.72
2019-02-16T07:12:18.286Z,5.67
2019-02-16T07:14:53.160Z,6.15
2019-02-16T07:17:49.135Z,5.35
2019-02-16T07:20:26.258Z,5.45
2019-02-16T07:23:01.215Z,5.28
2019-02-16T07:25:36.392Z,5.37
2019-02-16T07:28:11.128Z,5.37
2019-02-16T07:30:45.614Z,5.33
2019-02-16T07:33:20.194Z,5.58
2019-02-16T07:35:54.676Z,5.20
2019-02-16T07:38:29.166Z,4.65
2019-02-16T07:41:03.775Z,4.72
2019-02-16T07:44:00.029Z,4.22
2019-02-16T07:46:58.923Z,4.50
2019-02-16T07:49:54.621Z,3.98
2019-02-16T07:52:59.907Z,4.35
2019-02-16T07:55:39.083Z,3.92
2019-02-16T07:58:38.271Z,3.80
2019-02-16T08:01:41.035Z,4.10
2019-02-16T08:04:32.500Z,3.85
2019-02-16T08:07:24.238Z,4.08
2019-02-16T08:10:15.765Z,3.77
2019-02-16T08:13:07.792Z,3.77
2019-02-16T08:16:06.618Z,3.58
2019-02-16T08:18:53.618Z,3.90
2019-02-16T08:21:59.004Z,3.58
2019-02-16T08:25:05.620Z,3.42
2019-02-16T08:27:58.263Z,3.35
2019-02-16T08:31:09.038Z,3.60
2019-02-16T08:34:01.753Z,3.52
2019-02-16T08:37:03.537Z,3.62
2019-02-16T08:39:46.308Z,2.92
2019-02-16T08:42:41.747Z,3.45
2019-02-16T08:45:25.290Z,3.20
2019-02-16T08:48:17.377Z,2.98
2019-02-16T08:51:00.411Z,3.12
2019-02-16T08:53:56.792Z,2.95
2019-02-16T08:57:01.945Z,3.42
2019-02-16T08:59:47.879Z,2.70
2019-02-16T09:02:37.520Z,2.90
2019-02-16T09:05:33.808Z,3.17
2019-02-16T09:08:25.732Z,2.67
2019-02-16T09:11:17.455Z,2.87
2019-02-16T09:14:01.407Z,3.10
2019-02-16T09:16:53.405Z,2.98
2019-02-16T09:19:45.318Z,3.30
2019-02-16T09:23:06.955Z,3.10
2019-02-16T09:26:00.909Z,2.90
2019-02-16T09:28:52.093Z,2.80
2019-02-16T09:31:43.390Z,3.10
2019-02-16T09:34:42.364Z,3.37
2019-02-16T09:37:32.834Z,3.12
2019-02-16T09:40:42.065Z,3.22
2019-02-16T09:43:36.917Z,3.17
2019-02-16T09:46:27.050Z,2.77
2019-02-16T09:49:16.986Z,2.87
2019-02-16T09:51:59.029Z,3.40
2019-02-16T09:54:50.609Z,3.22
2019-02-16T09:57:49.462Z,3.20
2019-02-16T10:03:29.661Z,2.85
2019-02-16T10:06:21.057Z,3.02
2019-02-16T10:09:01.825Z,3.37
2019-02-16T10:11:52.200Z,3.00
2019-02-16T10:14:57.832Z,2.92
2019-02-16T10:17:45.441Z,2.80
2019-02-16T10:20:47.415Z,3.20
2019-02-16T10:23:35.623Z,2.70
2019-02-16T10:26:17.586Z,3.27
2019-02-16T10:29:01.607Z,3.12
2019-02-16T10:32:03.808Z,2.85
2019-02-16T10:34:46.332Z,3.08
2019-02-16T10:37:38.170Z,2.95
2019-02-16T10:40:40.409Z,2.83
2019-02-16T10:43:40.312Z,3.30
2019-02-16T10:46:28.027Z,3.00
2019-02-16T10:49:13.351Z,2.75
2019-02-16T10:51:57.350Z,3.30
2019-02-16T10:54:50.170Z,2.92
2019-02-16T10:57:41.295Z,2.67
2019-02-16T11:00:32.694Z,2.77
2019-02-16T11:03:17.639Z,3.22
2019-02-16T11:06:16.723Z,3.35
2019-02-16T11:09:10.812Z,2.85
2019-02-16T11:12:02.182Z,2.77
2019-02-16T11:14:50.456Z,3.12
2019-02-16T11:17:53.478Z,3.27
2019-02-16T11:20:45.756Z,2.92
2019-02-16T11:23:42.794Z,3.25
2019-02-16T11:26:44.635Z,3.60
2019-02-16T11:29:36.199Z,3.37
2019-02-16T11:32:32.018Z,3.33
2019-02-16T11:35:28.238Z,3.20
2019-02-16T11:38:18.867Z,3.27
2019-02-16T11:41:45.169Z,3.37
2019-02-16T11:44:44.625Z,3.85
2019-02-16T11:47:41.155Z,3.08
2019-02-16T11:50:37.400Z,3.30
2019-02-16T11:53:39.344Z,2.92
2019-02-16T11:56:22.139Z,3.27
2019-02-16T11:59:12.266Z,3.22
2019-02-16T12:02:03.996Z,3.17
2019-02-16T12:05:00.373Z,3.30
2019-02-16T12:07:50.384Z,2.87
2019-02-16T12:10:34.314Z,3.00
2019-02-16T12:13:23.936Z,3.50
2019-02-16T12:16:10.069Z,3.50
2019-02-16T12:19:02.569Z,3.20
2019-02-16T12:21:45.460Z,3.57
2019-02-16T12:24:28.752Z,3.27
2019-02-16T12:27:40.020Z,3.17
2019-02-16T12:30:31.887Z,3.47
2019-02-16T12:33:36.911Z,3.13
2019-02-16T12:36:24.538Z,2.93
2019-02-16T12:39:27.081Z,3.33
2019-02-16T12:42:23.087Z,3.73
2019-02-16T12:45:22.497Z,3.10
2019-02-16T12:48:21.869Z,3.13
2019-02-16T12:51:13.147Z,3.30
2019-02-16T12:54:04.897Z,3.37
2019-02-16T12:56:48.085Z,3.87
2019-02-16T12:59:43.194Z,3.00
2019-02-16T13:02:40.169Z,3.50
2019-02-16T13:05:39.744Z,3.60
2019-02-16T13:08:32.659Z,3.43
2019-02-16T13:11:16.732Z,3.30
2019-02-16T13:14:09.996Z,3.13
2019-02-16T13:17:12.418Z,3.37
2019-02-16T13:19:55.495Z,3.50
2019-02-16T13:22:47.553Z,3.63
2019-02-16T13:25:40.923Z,3.57
2019-02-16T13:28:37.792Z,3.60
2019-02-16T13:31:29.472Z,3.63
2019-02-16T13:34:22.301Z,3.60
2019-02-16T13:37:24.768Z,3.00
2019-02-16T13:40:15.995Z,3.80
2019-02-16T13:43:24.580Z,3.57
2019-02-16T13:46:05.927Z,3.80
2019-02-16T13:49:08.913Z,3.87
2019-02-16T13:52:04.835Z,3.57
2019-02-16T13:54:49.168Z,3.83
2019-02-16T13:57:42.328Z,3.60
2019-02-16T14:00:31.449Z,3.47
2019-02-16T14:03:12.910Z,4.17
2019-02-16T14:06:05.849Z,4.57
2019-02-16T14:08:57.216Z,3.83
2019-02-16T14:11:50.522Z,3.97
2019-02-16T14:14:32.932Z,4.57
2019-02-16T14:17:35.069Z,4.00
2019-02-16T14:20:09.884Z,4.53
2019-02-16T14:22:44.229Z,3.97
2019-02-16T14:25:42.857Z,3.93
2019-02-16T14:28:13.118Z,4.40
2019-02-16T14:30:47.813Z,4.63
2019-02-16T14:33:22.878Z,4.27
2019-02-16T14:35:57.522Z,4.57
2019-02-16T14:38:46.876Z,4.30
2019-02-16T14:41:22.660Z,4.30
2019-02-16T14:43:57.157Z,4.17
2019-02-16T14:46:32.313Z,4.20
2019-02-16T14:49:06.804Z,4.25
2019-02-16T14:51:41.827Z,4.90
2019-02-16T14:54:16.536Z,4.90
2019-02-16T14:56:51.074Z,4.37
2019-02-16T14:59:25.759Z,4.30
2019-02-16T15:02:00.484Z,4.57
2019-02-16T15:04:36.440Z,4.28
2019-02-16T15:07:11.150Z,4.15
2019-02-16T15:09:46.204Z,4.25
2019-02-16T15:12:20.788Z,4.27
2019-02-16T15:14:55.875Z,4.30
2019-02-16T15:17:49.419Z,4.20
2019-02-16T15:20:24.557Z,3.87
2019-02-16T15:22:59.209Z,4.30
2019-02-16T15:25:33.770Z,4.10
2019-02-16T15:28:08.306Z,4.10
2019-02-16T15:30:43.273Z,4.50
2019-02-16T15:33:17.590Z,4.27
2019-02-16T15:35:52.098Z,3.98
2019-02-16T15:38:26.834Z,3.90
2019-02-16T15:41:01.971Z,3.85
2019-02-16T15:43:36.751Z,4.53
2019-02-16T15:46:11.202Z,3.90
2019-02-16T15:48:46.206Z,3.93
2019-02-16T15:51:20.969Z,4.23
2019-02-16T15:54:00.015Z,3.83
2019-02-16T15:56:34.582Z,3.90
2019-02-16T15:59:09.605Z,4.00
2019-02-16T16:01:44.869Z,4.20
2019-02-16T16:04:21.397Z,4.23
2019-02-16T16:06:56.438Z,4.20
2019-02-16T16:09:55.804Z,4.73
2019-02-16T16:12:48.845Z,4.33
2019-02-16T16:15:31.809Z,3.70
2019-02-16T16:18:28.265Z,4.40
2019-02-16T16:21:18.692Z,4.07
2019-02-16T16:24:06.865Z,4.15
2019-02-16T16:27:08.745Z,3.90
2019-02-16T16:30:17.039Z,4.30
2019-02-16T16:33:09.892Z,3.98
2019-02-16T16:36:18.476Z,3.90
2019-02-16T16:39:17.234Z,3.93
2019-02-16T16:42:20.028Z,3.92
2019-02-16T16:45:11.196Z,4.17
2019-02-16T16:48:19.499Z,4.17
2019-02-16T16:51:12.731Z,3.75
2019-02-16T16:54:03.143Z,4.00
2019-02-16T16:56:59.570Z,3.90
2019-02-16T16:59:55.498Z,3.52
2019-02-16T17:02:46.944Z,3.60
2019-02-16T17:05:28.698Z,3.90
2019-02-16T17:08:28.179Z,4.00
2019-02-16T17:11:21.814Z,3.30
2019-02-16T17:14:21.112Z,3.65
2019-02-16T17:17:29.275Z,3.83
2019-02-16T17:20:19.392Z,3.60
2019-02-16T17:23:04.056Z,3.80
2019-02-16T17:25:55.651Z,3.40
2019-02-16T17:28:51.968Z,3.70
2019-02-16T17:31:43.687Z,3.62
2019-02-16T17:34:36.933Z,3.37
2019-02-16T17:37:30.090Z,3.37
2019-02-16T17:40:35.112Z,3.65
2019-02-16T17:43:33.673Z,3.23
2019-02-16T17:46:20.814Z,3.27
2019-02-16T17:49:22.687Z,3.40
2019-02-16T17:52:18.731Z,2.93
2019-02-16T17:55:30.271Z,3.60
2019-02-16T17:58:15.162Z,3.53
2019-02-16T18:01:29.525Z,3.77
2019-02-16T18:04:57.031Z,3.40
2019-02-16T18:07:55.901Z,3.37
2019-02-16T18:10:51.375Z,3.25
2019-02-16T18:13:40.429Z,3.22
2019-02-16T18:16:24.439Z,3.70
2019-02-16T18:19:08.764Z,3.55
2019-02-16T18:21:51.466Z,3.47
2019-02-16T18:24:53.718Z,3.47
2019-02-16T18:28:04.853Z,3.33
2019-02-16T18:30:55.604Z,3.47
2019-02-16T18:33:41.557Z,3.80
2019-02-16T18:36:27.338Z,3.67
2019-02-16T18:39:20.479Z,3.40
2019-02-16T18:42:28.162Z,3.47
2019-02-16T18:45:15.940Z,3.20
2019-02-16T18:48:14.610Z,3.47
2019-02-16T18:51:10.555Z,3.53
2019-02-16T18:53:54.781Z,3.70
2019-02-16T18:56:50.511Z,3.83
2019-02-16T19:00:12.179Z,3.33
2019-02-16T19:03:08.137Z,3.47
2019-02-16T19:05:55.768Z,3.57
2019-02-16T19:08:48.700Z,3.83
2019-02-16T19:11:41.974Z,3.83
2019-02-16T19:14:38.160Z,3.33
2019-02-16T19:17:29.283Z,3.60
2019-02-16T19:20:22.392Z,3.67
2019-02-16T19:23:09.239Z,3.70
2019-02-16T19:26:00.277Z,3.77
2019-02-16T19:28:53.417Z,4.07
2019-02-16T19:31:44.212Z,3.27
2019-02-16T19:34:40.775Z,3.42
2019-02-16T19:37:45.987Z,3.67
2019-02-16T19:40:38.163Z,3.70
2019-02-16T19:43:30.248Z,3.37
2019-02-16T19:46:26.875Z,3.40
2019-02-16T19:49:15.710Z,3.70
2019-02-16T19:52:00.214Z,3.45
2019-02-16T19:54:55.971Z,3.50
2019-02-16T19:57:47.918Z,3.57
2019-02-16T20:00:48.018Z,3.80
2019-02-16T20:03:39.950Z,3.50
2019-02-16T20:06:36.353Z,3.70
2019-02-16T20:09:35.946Z,3.62
2019-02-16T20:12:35.030Z,3.30
2019-02-16T20:15:46.601Z,3.30
2019-02-16T20:18:38.507Z,3.22
2019-02-16T20:21:30.319Z,3.57
2019-02-16T20:24:23.474Z,3.62
2019-02-16T20:27:23.045Z,3.45
2019-02-16T20:30:15.113Z,3.25
2019-02-16T20:33:21.341Z,3.40
2019-02-16T20:36:26.774Z,3.57
2019-02-16T20:39:17.832Z,2.97
2019-02-16T20:42:14.192Z,3.03
2019-02-16T20:45:05.279Z,3.00
2019-02-16T20:47:52.304Z,3.00
2019-02-16T20:50:48.307Z,3.17
2019-02-16T20:53:41.143Z,3.17
2019-02-16T20:56:37.556Z,3.70
2019-02-16T20:59:37.253Z,3.58
2019-02-16T21:02:29.596Z,2.83
2019-02-16T21:05:21.297Z,3.60
2019-02-16T21:08:14.528Z,3.57
2019-02-16T21:11:10.168Z,3.57
2019-02-16T21:14:08.869Z,3.13
2019-02-16T21:17:07.584Z,3.20
2019-02-16T21:20:18.153Z,3.47
2019-02-16T21:23:20.910Z,3.53
2019-02-16T21:26:36.586Z,3.50
2019-02-16T21:29:25.830Z,3.40
2019-02-16T21:32:16.055Z,3.20
2019-02-16T21:35:14.907Z,3.20
2019-02-16T21:38:26.160Z,3.35
2019-02-16T21:41:13.671Z,3.47
2019-02-16T21:44:06.427Z,3.30
2019-02-16T21:47:08.573Z,3.90
2019-02-16T21:49:56.104Z,3.20
2019-02-16T21:52:51.756Z,3.60
2019-02-16T21:55:52.394Z,3.13
2019-02-16T21:58:43.214Z,3.60
2019-02-16T22:01:35.336Z,3.33
2019-02-16T22:04:34.827Z,3.50
2019-02-16T22:07:22.393Z,3.30
2019-02-16T22:10:15.171Z,3.93
2019-02-16T22:13:08.511Z,3.53
2019-02-16T22:15:42.973Z,3.47
2019-02-16T22:18:17.946Z,3.47
2019-02-16T22:20:52.649Z,3.53
2019-02-16T22:23:46.473Z,4.20
2019-02-16T22:26:21.121Z,3.60
2019-02-16T22:28:56.527Z,4.03
2019-02-16T22:31:31.091Z,3.70
2019-02-16T22:34:06.768Z,3.43
2019-02-16T22:36:41.511Z,3.53
2019-02-16T22:39:16.189Z,4.03
2019-02-16T22:41:51.022Z,3.70
2019-02-16T22:44:26.788Z,3.37
2019-02-16T22:47:01.272Z,3.70
2019-02-16T22:49:35.804Z,3.40
2019-02-16T22:52:10.676Z,3.30
2019-02-16T22:54:46.064Z,3.53
2019-02-16T22:57:20.710Z,3.63
2019-02-16T22:59:55.804Z,3.40
2019-02-16T23:02:30.817Z,3.63
2019-02-16T23:05:06.179Z,3.37
2019-02-16T23:07:41.366Z,3.60
2019-02-16T23:10:15.923Z,3.87
2019-02-16T23:12:50.514Z,3.07
2019-02-16T23:15:25.639Z,3.47
2019-02-16T23:18:00.169Z,3.63
2019-02-16T23:20:35.085Z,3.70
2019-02-16T23:23:09.862Z,3.47
2019-02-16T23:25:45.164Z,3.83
2019-02-16T23:28:20.071Z,4.00
2019-02-16T23:30:55.138Z,3.50
2019-02-16T23:33:29.731Z,4.00
2019-02-16T23:36:05.085Z,3.53
2019-02-16T23:38:39.776Z,3.73
2019-02-16T23:41:15.458Z,4.00
2019-02-16T23:43:50.650Z,3.73
2019-02-16T23:46:25.748Z,3.50
2019-02-16T23:49:00.743Z,3.07
2019-02-16T23:51:35.492Z,3.10
2019-02-16T23:54:10.492Z,3.70
2019-02-16T23:56:45.446Z,3.40
2019-02-16T23:59:20.430Z,3.60
